createdAt,value
2023-05-19T00:01:17.720Z,9.50
2023-05-19T00:03:58.964Z,9.40
2023-05-19T00:06:29.171Z,9.40
2023-05-19T00:08:59.835Z,9.40
2023-05-19T00:11:27.909Z,9.40
2023-05-19T00:13:56.632Z,9.40
2023-05-19T00:16:24.699Z,9.40
2023-05-19T00:21:20.785Z,9.40
2023-05-19T00:31:18.400Z,9.40
2023-05-19T00:36:12.672Z,9.40
2023-05-19T00:51:02.116Z,9.30
2023-05-19T00:53:29.751Z,9.30
2023-05-19T00:55:56.922Z,9.20
2023-05-19T00:58:28.998Z,9.20
2023-05-19T01:01:03.142Z,9.10
2023-05-19T01:03:31.974Z,9.10
2023-05-19T01:16:01.744Z,8.90
2023-05-19T01:18:56.241Z,8.90
2023-05-19T01:22:03.523Z,8.90
2023-05-19T01:24:45.420Z,8.80
2023-05-19T01:27:48.537Z,8.80
2023-05-19T01:30:32.614Z,8.70
2023-05-19T01:33:02.776Z,8.60
2023-05-19T01:35:30.683Z,8.60
2023-05-19T01:37:59.574Z,8.60
2023-05-19T01:40:27.787Z,8.60
2023-05-19T01:42:57.811Z,8.60
2023-05-19T01:45:26.511Z,8.60
2023-05-19T01:48:00.294Z,8.50
2023-05-19T01:50:27.908Z,7.40
2023-05-19T01:55:23.656Z,8.50
2023-05-19T01:58:17.410Z,8.50
2023-05-19T02:01:16.446Z,8.40
2023-05-19T02:03:50.470Z,8.30
2023-05-19T02:06:44.658Z,8.30
2023-05-19T02:09:23.202Z,8.20
2023-05-19T02:12:11.337Z,8.20
2023-05-19T02:14:56.251Z,8.10
2023-05-19T02:17:27.220Z,8.10
2023-05-19T02:34:42.157Z,7.80
2023-05-19T03:01:41.332Z,7.60
2023-05-19T03:09:03.021Z,7.50
2023-05-19T03:11:30.858Z,7.50
2023-05-19T03:21:19.082Z,7.30
2023-05-19T03:28:41.013Z,7.20
2023-05-19T03:41:04.029Z,7.10
2023-05-19T04:01:54.056Z,7.00
2023-05-19T04:09:16.508Z,6.90
2023-05-19T04:14:10.504Z,6.80
2023-05-19T04:26:30.720Z,7.30
2023-05-19T04:48:53.063Z,8.80
2023-05-19T04:51:19.933Z,8.90
2023-05-19T04:58:44.591Z,9.40
2023-05-19T05:15:59.303Z,10.50
2023-05-19T05:20:53.673Z,10.80
2023-05-19T05:35:42.003Z,11.30
2023-05-19T05:45:37.954Z,11.70
2023-05-19T05:48:05.874Z,11.80
2023-05-19T05:50:33.781Z,11.90
2023-05-19T05:53:03.520Z,12.00
2023-05-19T06:15:22.179Z,12.90
2023-05-19T06:25:22.828Z,13.20
2023-05-19T06:42:43.536Z,14.30
2023-05-19T06:50:11.678Z,14.90
2023-05-19T07:00:09.569Z,15.40
2023-05-19T07:07:31.323Z,15.70
2023-05-19T07:32:06.524Z,16.30
2023-05-19T07:37:00.315Z,16.40
2023-05-19T08:11:23.943Z,17.00
2023-05-19T08:23:40.124Z,17.40
2023-05-19T08:31:01.018Z,17.40
2023-05-19T08:35:57.917Z,17.50
2023-05-19T08:38:25.944Z,17.50
2023-05-19T08:40:52.754Z,17.40
2023-05-19T08:45:48.132Z,17.30
2023-05-19T08:48:17.457Z,17.30
2023-05-19T08:50:51.696Z,17.30
2023-05-19T08:53:33.958Z,17.30
2023-05-19T08:56:22.554Z,17.40
2023-05-19T08:58:50.784Z,17.50
2023-05-19T09:01:19.382Z,17.50
2023-05-19T09:03:49.460Z,17.50
2023-05-19T09:08:44.688Z,17.40
2023-05-19T09:11:11.780Z,17.40
2023-05-19T09:13:39.074Z,17.60
2023-05-19T09:16:06.500Z,17.60
2023-05-19T09:21:04.993Z,17.60
2023-05-19T09:23:36.186Z,17.60
2023-05-19T09:26:07.038Z,17.70
2023-05-19T09:28:34.980Z,17.70
2023-05-19T09:31:02.499Z,17.60
2023-05-19T09:33:30.130Z,17.60
2023-05-19T09:38:25.250Z,17.50
2023-05-19T09:40:53.409Z,17.50
2023-05-19T09:43:21.566Z,17.60
2023-05-19T09:45:48.695Z,17.70
2023-05-19T09:50:45.565Z,17.90
2023-05-19T09:53:14.147Z,17.90
2023-05-19T09:55:41.955Z,17.90
2023-05-19T10:03:06.150Z,17.80
2023-05-19T10:05:33.585Z,17.70
2023-05-19T10:10:28.896Z,17.90
2023-05-19T10:15:23.481Z,18.10
2023-05-19T10:17:50.515Z,18.00
2023-05-19T10:20:17.731Z,18.10
2023-05-19T10:22:46.162Z,18.00
2023-05-19T10:25:15.109Z,18.00
2023-05-19T10:27:52.394Z,18.00
2023-05-19T10:30:25.943Z,18.00
2023-05-19T10:32:54.717Z,18.00
2023-05-19T10:35:43.438Z,18.00
2023-05-19T10:38:24.311Z,18.10
2023-05-19T10:43:24.719Z,18.10
2023-05-19T10:45:53.524Z,18.20
2023-05-19T10:48:22.194Z,18.20
2023-05-19T10:50:53.138Z,18.10
2023-05-19T10:53:22.627Z,18.00
2023-05-19T10:55:56.362Z,18.00
2023-05-19T10:58:39.927Z,17.90
2023-05-19T11:01:14.145Z,17.90
2023-05-19T11:03:47.976Z,18.00
2023-05-19T11:06:26.266Z,18.10
2023-05-19T11:09:01.847Z,18.10
2023-05-19T11:11:50.943Z,18.10
2023-05-19T11:14:19.210Z,18.00
2023-05-19T11:16:50.434Z,17.90
2023-05-19T11:19:27.004Z,17.90
2023-05-19T11:21:55.389Z,17.80
2023-05-19T11:24:39.918Z,17.80
2023-05-19T11:27:30.914Z,17.80
2023-05-19T11:30:07.536Z,17.70
2023-05-19T11:32:35.853Z,17.70
2023-05-19T11:35:02.864Z,17.60
2023-05-19T11:37:32.883Z,17.60
2023-05-19T11:40:03.318Z,17.60
2023-05-19T11:52:22.354Z,17.90
2023-05-19T11:54:49.807Z,17.80
2023-05-19T11:59:45.653Z,17.90
2023-05-19T12:02:27.864Z,17.90
2023-05-19T12:07:26.009Z,18.20
2023-05-19T12:09:53.155Z,18.30
2023-05-19T12:12:21.430Z,18.20
2023-05-19T12:14:50.371Z,18.40
2023-05-19T12:17:21.182Z,18.50
2023-05-19T12:19:48.988Z,18.60
2023-05-19T12:22:17.206Z,18.70
2023-05-19T12:24:44.795Z,18.70
2023-05-19T12:27:20.303Z,18.70
2023-05-19T12:29:54.281Z,18.80
2023-05-19T12:32:28.679Z,18.90
2023-05-19T12:34:58.771Z,18.90
2023-05-19T12:37:30.001Z,18.90
2023-05-19T12:39:57.540Z,18.80
2023-05-19T12:42:31.038Z,18.70
2023-05-19T12:45:00.751Z,18.70
2023-05-19T12:47:35.919Z,18.80
2023-05-19T12:50:04.863Z,18.80
2023-05-19T12:52:35.276Z,18.80
2023-05-19T12:55:07.176Z,18.70
2023-05-19T12:57:41.868Z,18.50
2023-05-19T13:00:17.651Z,18.50
2023-05-19T13:03:07.883Z,15.90
2023-05-19T13:05:39.434Z,18.30
2023-05-19T13:08:09.100Z,18.40
2023-05-19T13:10:37.617Z,18.50
2023-05-19T13:13:05.045Z,18.60
2023-05-19T13:15:36.403Z,18.60
2023-05-19T13:18:06.114Z,18.50
2023-05-19T13:20:33.472Z,18.40
2023-05-19T13:23:00.357Z,18.40
2023-05-19T13:25:27.536Z,18.40
2023-05-19T13:30:21.949Z,18.40
2023-05-19T13:32:48.664Z,18.40
2023-05-19T13:35:15.922Z,18.40
2023-05-19T13:40:10.809Z,18.30
2023-05-19T13:42:37.934Z,18.30
2023-05-19T13:45:05.170Z,18.40
2023-05-19T13:47:32.011Z,18.50
2023-05-19T13:52:27.533Z,18.70
2023-05-19T13:57:26.662Z,18.70
2023-05-19T14:00:02.753Z,18.60
2023-05-19T14:02:39.276Z,18.70
2023-05-19T14:05:06.936Z,18.50
2023-05-19T14:07:34.983Z,18.50
2023-05-19T14:10:03.879Z,18.60
2023-05-19T14:22:36.228Z,18.50
2023-05-19T14:27:30.535Z,18.60
2023-05-19T14:29:57.291Z,18.50
2023-05-19T14:34:54.041Z,18.50
2023-05-19T14:37:20.722Z,18.50
2023-05-19T14:42:20.871Z,18.60
2023-05-19T14:44:47.636Z,18.60
2023-05-19T14:47:14.367Z,18.70
2023-05-19T14:49:41.152Z,18.70
2023-05-19T14:52:07.842Z,18.70
2023-05-19T14:54:34.541Z,18.60
2023-05-19T14:57:01.585Z,18.60
2023-05-19T14:59:29.533Z,18.60
2023-05-19T15:04:23.496Z,18.50
2023-05-19T15:07:02.034Z,18.50
2023-05-19T15:09:36.200Z,18.50
2023-05-19T15:14:30.963Z,18.70
2023-05-19T15:16:59.097Z,18.70
2023-05-19T15:19:26.321Z,18.70
2023-05-19T15:21:53.197Z,18.70
2023-05-19T15:24:19.842Z,18.70
2023-05-19T15:26:47.201Z,18.70
2023-05-19T15:29:13.946Z,18.80
2023-05-19T15:31:40.731Z,18.70
2023-05-19T15:34:07.518Z,18.70
2023-05-19T15:39:01.389Z,18.70
2023-05-19T15:41:28.094Z,18.80
2023-05-19T15:43:54.835Z,18.90
2023-05-19T15:46:21.777Z,18.90
2023-05-19T15:48:48.493Z,19.00
2023-05-19T15:51:15.203Z,19.10
2023-05-19T15:53:42.014Z,19.20
2023-05-19T15:56:08.836Z,19.20
2023-05-19T15:58:35.577Z,19.30
2023-05-19T16:01:02.922Z,19.10
2023-05-19T16:03:30.061Z,19.10
2023-05-19T16:05:56.977Z,19.00
2023-05-19T16:08:23.683Z,18.90
2023-05-19T16:10:50.501Z,18.90
2023-05-19T16:13:17.141Z,18.90
2023-05-19T16:15:43.808Z,19.00
2023-05-19T16:18:11.702Z,18.80
2023-05-19T16:20:38.661Z,19.00
2023-05-19T16:23:05.584Z,18.90
2023-05-19T16:25:32.559Z,18.90
2023-05-19T16:27:59.233Z,19.00
2023-05-19T16:30:27.853Z,18.90
2023-05-19T16:32:54.737Z,18.90
2023-05-19T16:35:21.869Z,18.90
2023-05-19T16:37:49.027Z,18.70
2023-05-19T16:40:15.732Z,19.00
2023-05-19T16:45:09.955Z,18.90
2023-05-19T16:47:36.744Z,18.90
2023-05-19T16:50:03.981Z,18.90
2023-05-19T16:52:30.716Z,18.90
2023-05-19T16:54:57.438Z,18.90
2023-05-19T16:57:24.234Z,18.90
2023-05-19T16:59:50.940Z,18.80
2023-05-19T17:02:17.722Z,18.70
2023-05-19T17:04:44.445Z,18.60
2023-05-19T17:07:17.512Z,18.50
2023-05-19T17:09:44.649Z,18.40
2023-05-19T17:12:11.309Z,18.40
2023-05-19T17:14:38.027Z,18.30
2023-05-19T17:17:04.872Z,18.30
2023-05-19T17:19:31.710Z,18.20
2023-05-19T17:21:58.540Z,18.20
2023-05-19T17:26:52.396Z,18.20
2023-05-19T17:29:19.059Z,18.20
2023-05-19T17:31:45.862Z,18.30
2023-05-19T17:34:12.525Z,18.30
2023-05-19T17:36:39.167Z,18.30
2023-05-19T17:39:05.901Z,18.30
2023-05-19T17:43:59.633Z,18.40
2023-05-19T17:46:26.351Z,18.40
2023-05-19T17:48:53.052Z,18.40
2023-05-19T17:51:20.012Z,18.20
2023-05-19T17:53:46.998Z,18.20
2023-05-19T17:56:14.211Z,18.10
2023-05-19T17:58:41.469Z,18.00
2023-05-19T18:01:08.661Z,17.90
2023-05-19T18:03:35.801Z,17.90
2023-05-19T18:06:02.889Z,17.80
2023-05-19T18:08:31.352Z,17.80
2023-05-19T18:10:58.235Z,17.70
2023-05-19T18:15:52.890Z,17.50
2023-05-19T18:18:19.600Z,17.50
2023-05-19T18:20:46.252Z,17.50
2023-05-19T18:23:13.185Z,17.50
2023-05-19T18:25:39.850Z,17.40
2023-05-19T18:28:06.695Z,17.20
2023-05-19T18:30:33.600Z,17.40
2023-05-19T18:37:57.679Z,17.30
2023-05-19T18:45:18.897Z,17.10
2023-05-19T18:47:46.090Z,17.00
2023-05-19T18:50:13.057Z,17.00
2023-05-19T18:52:39.830Z,17.00
2023-05-19T18:55:07.094Z,17.00
2023-05-19T19:00:00.890Z,16.80
2023-05-19T19:04:54.990Z,16.70
2023-05-19T19:12:16.833Z,16.50
2023-05-19T19:19:39.607Z,16.30
2023-05-19T19:22:06.375Z,16.20
2023-05-19T19:36:49.627Z,15.90
2023-05-19T19:39:16.283Z,15.80
2023-05-19T19:41:43.097Z,15.80
2023-05-19T19:46:37.083Z,15.60
2023-05-19T19:49:03.828Z,15.60
2023-05-19T19:51:31.450Z,15.50
2023-05-19T19:56:27.360Z,15.40
2023-05-19T20:03:55.828Z,15.30
2023-05-19T20:06:22.992Z,15.30
2023-05-19T20:08:49.900Z,15.20
2023-05-19T20:11:16.682Z,15.20
2023-05-19T20:13:43.428Z,15.10
2023-05-19T20:18:37.314Z,15.00
2023-05-19T20:23:31.237Z,15.00
2023-05-19T20:31:06.264Z,14.80
2023-05-19T20:36:00.489Z,14.80
2023-05-19T20:38:27.401Z,14.70
2023-05-19T20:40:54.586Z,14.60
2023-05-19T20:43:21.381Z,14.60
2023-05-19T20:45:48.195Z,14.50
2023-05-19T20:55:39.602Z,14.50
2023-05-19T21:00:33.991Z,14.30
2023-05-19T21:07:55.850Z,14.10
2023-05-19T21:10:22.531Z,14.20
2023-05-19T21:20:11.485Z,14.00
2023-05-19T21:27:35.385Z,13.80
2023-05-19T21:37:24.058Z,13.60
2023-05-19T21:49:40.573Z,13.50
2023-05-19T21:52:07.747Z,13.50
2023-05-19T21:57:02.304Z,13.40
2023-05-19T22:14:12.044Z,13.40
2023-05-19T22:16:38.813Z,13.20
2023-05-19T22:28:56.524Z,13.20
2023-05-19T22:43:38.802Z,13.10
2023-05-19T23:05:43.074Z,13.00
2023-05-19T23:08:09.700Z,12.90
2023-05-19T23:22:51.926Z,12.80
2023-05-19T23:27:46.473Z,12.80
2023-05-19T23:35:16.762Z,12.80
2023-05-19T23:45:06.165Z,12.70
